Time,TemperatureF,DewpointF,PressureIn,WindDirection,WindDirectionDegrees,WindSpeedMPH,WindSpeedGustMPH,Humidity,HourlyPrecipIn,Conditions,Clouds,dailyrainin,SoftwareType,DateUTC
2013-04-11 00:00:00,42.9,41.3,29.98,ESE,110,0.0,8.0,94,0.00,,---,0.00,VWS V14.00,2013-04-11 04:00:00,
2013-04-11 00:01:00,42.8,41.2,29.98,ESE,110,1.0,2.0,94,0.00,,---,0.00,VWS V14.00,2013-04-11 04:01:00,
2013-04-11 00:09:00,43.0,41.4,29.98,ESE,116,4.0,8.0,94,0.00,,---,0.00,VWS V14.00,2013-04-11 04:09:00,
2013-04-11 00:17:00,43.1,41.5,29.98,ESE,118,0.0,8.0,94,0.00,,---,0.00,VWS V14.00,2013-04-11 04:17:00,
2013-04-11 00:25:00,43.1,41.5,29.97,East,98,2.0,8.0,94,0.00,,---,0.00,VWS V14.00,2013-04-11 04:25:00,
2013-04-11 00:33:00,43.1,41.5,29.97,ENE,76,5.0,6.0,94,0.00,,---,0.00,VWS V14.00,2013-04-11 04:33:00,
2013-04-11 00:41:00,43.1,41.5,29.98,ENE,78,3.0,7.0,94,0.00,,---,0.00,VWS V14.00,2013-04-11 04:41:00,
2013-04-11 00:49:00,43.0,41.4,29.98,NNE,21,5.0,7.0,94,0.00,,---,0.00,VWS V14.00,2013-04-11 04:49:00,
2013-04-11 00:57:00,42.9,41.3,29.98,NE,38,1.0,7.0,94,0.00,,---,0.00,VWS V14.00,2013-04-11 04:57:00,
2013-04-11 01:05:00,42.9,41.3,29.98,North,5,1.0,3.0,94,0.00,,---,0.00,VWS V14.00,2013-04-11 05:05:00,
2013-04-11 01:13:00,42.9,41.3,29.99,East,88,0.0,3.0,94,0.00,,---,0.00,VWS V14.00,2013-04-11 05:13:00,
2013-04-11 01:22:00,42.8,41.2,29.99,North,5,2.0,5.0,94,0.00,,---,0.00,VWS V14.00,2013-04-11 05:22:00,
2013-04-11 01:30:00,42.7,41.1,29.99,ENE,58,1.0,5.0,94,0.00,,---,0.00,VWS V14.00,2013-04-11 05:30:00,
2013-04-11 01:38:00,42.7,41.1,30.00,East,85,1.0,5.0,94,0.00,,---,0.00,VWS V14.00,2013-04-11 05:38:00,
2013-04-11 01:46:00,42.7,41.1,30.00,NE,44,2.0,5.0,94,0.00,,---,0.00,VWS V14.00,2013-04-11 05:46:00,
2013-04-11 01:54:00,42.7,41.1,30.00,NE,40,0.0,5.0,94,0.00,,---,0.00,VWS V14.00,2013-04-11 05:54:00,
2013-04-11 02:00:00,42.6,41.0,30.00,East,98,2.0,7.0,94,0.00,,---,0.00,VWS V14.00,2013-04-11 06:00:00,
2013-04-11 02:10:00,42.4,40.8,30.00,ENE,78,1.0,6.0,94,0.00,,---,0.00,VWS V14.00,2013-04-11 06:10:00,
2013-04-11 02:18:00,42.3,40.7,30.01,ENE,77,0.0,6.0,94,0.00,,---,0.00,VWS V14.00,2013-04-11 06:18:00,
2013-04-11 02:26:00,42.3,40.7,30.01,North,10,0.0,6.0,94,0.00,,---,0.00,VWS V14.00,2013-04-11 06:26:00,
2013-04-11 02:34:00,42.2,40.6,30.02,ENE,66,3.0,6.0,94,0.00,,---,0.00,VWS V14.00,2013-04-11 06:34:00,
2013-04-11 02:42:00,42.2,40.6,30.02,ENE,66,0.0,6.0,94,0.00,,---,0.00,VWS V14.00,2013-04-11 06:42:00,
2013-04-11 02:50:00,42.2,40.6,30.02,ENE,66,1.0,6.0,94,0.00,,---,0.00,VWS V14.00,2013-04-11 06:50:00,
2013-04-11 02:58:00,42.2,40.6,30.03,ENE,58,0.0,6.0,94,0.00,,---,0.00,VWS V14.00,2013-04-11 06:58:00,
2013-04-11 03:06:00,42.1,40.5,30.03,ENE,58,0.0,3.0,94,0.00,,---,0.00,VWS V14.00,2013-04-11 07:06:00,
2013-04-11 03:14:00,42.1,40.5,30.03,East,88,0.0,6.0,94,0.00,,---,0.00,VWS V14.00,2013-04-11 07:14:00,
2013-04-11 03:22:00,42.0,40.4,30.03,East,95,1.0,6.0,94,0.00,,---,0.00,VWS V14.00,2013-04-11 07:22:00,
2013-04-11 03:30:00,41.9,40.3,30.03,East,95,0.0,6.0,94,0.01,,---,0.01,VWS V14.00,2013-04-11 07:30:00,
2013-04-11 03:38:00,42.0,40.4,30.03,East,95,0.0,3.0,94,0.01,,---,0.01,VWS V14.00,2013-04-11 07:38:00,
2013-04-11 03:46:00,42.0,40.4,30.02,East,90,3.0,5.0,94,0.01,,---,0.01,VWS V14.00,2013-04-11 07:46:00,
2013-04-11 03:54:00,41.9,40.3,30.02,ESE,112,0.0,7.0,94,0.01,,---,0.01,VWS V14.00,2013-04-11 07:54:00,
2013-04-11 04:00:00,41.9,40.3,30.01,ENE,76,7.0,9.0,94,0.01,,---,0.01,VWS V14.00,2013-04-11 08:00:00,
2013-04-11 04:10:00,41.8,40.2,30.01,ESE,114,5.0,9.0,94,0.02,,---,0.02,VWS V14.00,2013-04-11 08:10:00,
2013-04-11 04:18:00,41.6,40.0,30.02,East,98,3.0,14.0,94,0.02,,---,0.02,VWS V14.00,2013-04-11 08:18:00,
2013-04-11 04:26:00,41.6,40.0,30.02,ENE,78,4.0,14.0,94,0.02,,---,0.02,VWS V14.00,2013-04-11 08:26:00,
2013-04-11 04:34:00,41.6,40.0,30.01,East,86,8.0,8.0,94,0.01,,---,0.02,VWS V14.00,2013-04-11 08:34:00,
2013-04-11 04:42:00,41.4,39.8,29.99,East,87,3.0,14.0,94,0.01,,---,0.02,VWS V14.00,2013-04-11 08:42:00,
2013-04-11 04:50:00,41.3,39.7,29.98,ENE,69,9.0,14.0,94,0.01,,---,0.02,VWS V14.00,2013-04-11 08:50:00,
2013-04-11 04:58:00,41.2,39.6,29.96,East,89,6.0,14.0,94,0.01,,---,0.02,VWS V14.00,2013-04-11 08:58:00,
2013-04-11 05:06:00,41.2,39.6,29.99,ESE,103,8.0,10.0,94,0.01,,---,0.02,VWS V14.00,2013-04-11 09:06:00,
2013-04-11 05:14:00,41.2,39.6,30.00,East,79,5.0,10.0,94,0.02,,---,0.03,VWS V14.00,2013-04-11 09:14:00,
2013-04-11 05:22:00,41.1,39.5,30.00,East,80,3.0,10.0,94,0.02,,---,0.03,VWS V14.00,2013-04-11 09:22:00,
2013-04-11 05:30:00,41.1,39.5,30.00,ENE,77,2.0,11.0,94,0.02,,---,0.03,VWS V14.00,2013-04-11 09:30:00,
2013-04-11 05:38:00,41.1,39.5,30.02,SE,132,5.0,5.0,94,0.01,,---,0.03,VWS V14.00,2013-04-11 09:38:00,
2013-04-11 05:46:00,41.1,39.5,30.00,East,98,3.0,8.0,94,0.02,,---,0.04,VWS V14.00,2013-04-11 09:46:00,
2013-04-11 05:54:00,41.0,39.4,30.00,ESE,105,3.0,8.0,94,0.03,,---,0.05,VWS V14.00,2013-04-11 09:54:00,
2013-04-11 06:00:00,40.9,39.3,30.01,SE,129,4.0,8.0,94,0.03,,---,0.05,VWS V14.00,2013-04-11 10:00:00,
2013-04-11 06:10:00,40.9,39.3,30.00,SE,128,6.0,7.0,94,0.03,,---,0.05,VWS V14.00,2013-04-11 10:10:00,
2013-04-11 06:18:00,40.9,39.3,29.99,ESE,121,9.0,9.0,94,0.04,,---,0.06,VWS V14.00,2013-04-11 10:18:00,
2013-04-11 06:26:00,40.9,39.3,29.98,ESE,113,7.0,9.0,94,0.04,,---,0.06,VWS V14.00,2013-04-11 10:26:00,
2013-04-11 06:35:00,40.9,39.3,29.98,SE,135,4.0,10.0,94,0.03,,---,0.06,VWS V14.00,2013-04-11 10:35:00,
2013-04-11 06:43:00,40.9,39.3,29.98,ESE,108,2.0,10.0,94,0.03,,---,0.06,VWS V14.00,2013-04-11 10:43:00,
2013-04-11 06:51:00,40.9,39.3,29.97,ESE,117,4.0,10.0,94,0.03,,---,0.06,VWS V14.00,2013-04-11 10:51:00,
2013-04-11 06:59:00,40.8,39.2,29.97,ESE,116,5.0,11.0,94,0.03,,---,0.06,VWS V14.00,2013-04-11 10:59:00,
2013-04-11 07:07:00,40.8,39.2,29.97,SE,125,2.0,8.0,94,0.01,,---,0.06,VWS V14.00,2013-04-11 11:07:00,
2013-04-11 07:15:00,40.8,38.9,29.97,ESE,113,4.0,8.0,93,0.01,,---,0.06,VWS V14.00,2013-04-11 11:15:00,
2013-04-11 07:23:00,40.9,39.3,29.97,East,82,5.0,8.0,94,0.01,,---,0.06,VWS V14.00,2013-04-11 11:23:00,
2013-04-11 07:30:00,40.9,39.3,29.98,East,84,1.0,8.0,94,0.01,,---,0.06,VWS V14.00,2013-04-11 11:30:00,
2013-04-11 07:39:00,40.9,39.0,29.99,ESE,111,3.0,4.0,93,0.00,,---,0.06,VWS V14.00,2013-04-11 11:39:00,
2013-04-11 07:47:00,40.8,38.9,29.99,East,90,2.0,7.0,93,0.00,,---,0.06,VWS V14.00,2013-04-11 11:47:00,
2013-04-11 07:55:00,40.9,39.0,29.99,East,98,1.0,8.0,93,0.00,,---,0.06,VWS V14.00,2013-04-11 11:55:00,
2013-04-11 08:00:00,40.9,39.0,30.00,ESE,119,3.0,8.0,93,0.00,,---,0.06,VWS V14.00,2013-04-11 12:00:00,
2013-04-11 08:11:00,40.7,38.8,30.03,North,355,2.0,8.0,93,0.00,,---,0.06,VWS V14.00,2013-04-11 12:11:00,
2013-04-11 08:19:00,40.7,38.8,30.02,East,91,5.0,8.0,93,0.00,,---,0.06,VWS V14.00,2013-04-11 12:19:00,
2013-04-11 08:27:00,40.7,38.8,30.02,ESE,117,4.0,12.0,93,0.00,,---,0.06,VWS V14.00,2013-04-11 12:27:00,
2013-04-11 08:35:00,40.7,38.8,30.02,ESE,115,3.0,9.0,93,0.00,,---,0.06,VWS V14.00,2013-04-11 12:35:00,
2013-04-11 08:43:00,40.7,38.6,30.02,ESE,108,5.0,9.0,92,0.00,,---,0.06,VWS V14.00,2013-04-11 12:43:00,
2013-04-11 08:59:00,40.7,38.6,30.01,East,94,6.0,9.0,92,0.00,,---,0.06,VWS V14.00,2013-04-11 12:59:00,
2013-04-11 09:07:00,40.7,38.6,30.01,ESE,118,8.0,10.0,92,0.00,,---,0.06,VWS V14.00,2013-04-11 13:07:00,
2013-04-11 09:15:00,40.7,38.6,30.02,East,96,5.0,10.0,92,0.00,,---,0.06,VWS V14.00,2013-04-11 13:15:00,
2013-04-11 09:23:00,40.7,38.6,30.01,ESE,115,3.0,10.0,92,0.00,,---,0.06,VWS V14.00,2013-04-11 13:23:00,
2013-04-11 09:30:00,40.7,38.6,30.03,East,86,2.0,10.0,92,0.00,,---,0.06,VWS V14.00,2013-04-11 13:30:00,
2013-04-11 09:39:00,40.6,38.5,30.03,East,84,3.0,13.0,92,0.00,,---,0.06,VWS V14.00,2013-04-11 13:39:00,
2013-04-11 09:47:00,40.4,38.0,30.04,ENE,71,0.0,13.0,91,0.00,,---,0.06,VWS V14.00,2013-04-11 13:47:00,
2013-04-11 09:55:00,40.2,37.8,30.03,East,94,5.0,13.0,91,0.00,,---,0.06,VWS V14.00,2013-04-11 13:55:00,
2013-04-11 10:03:00,40.1,38.0,30.09,NNW,342,5.0,9.0,92,0.00,,---,0.06,VWS V14.00,2013-04-11 14:03:00,
2013-04-11 10:19:00,39.6,37.5,30.06,ENE,57,1.0,9.0,92,0.00,,---,0.06,VWS V14.00,2013-04-11 14:19:00,
2013-04-11 10:27:00,39.1,37.0,30.08,ENE,76,3.0,9.0,92,0.00,,---,0.06,VWS V14.00,2013-04-11 14:27:00,
2013-04-11 10:35:00,38.7,36.6,30.09,ENE,59,4.0,9.0,92,0.00,,---,0.06,VWS V14.00,2013-04-11 14:35:00,
2013-04-11 10:43:00,38.3,36.2,30.05,East,99,3.0,15.0,92,0.00,,---,0.06,VWS V14.00,2013-04-11 14:43:00,
2013-04-11 10:52:00,37.9,35.8,30.05,East,83,5.0,15.0,92,0.00,,---,0.06,VWS V14.00,2013-04-11 14:52:00,
2013-04-11 11:00:00,37.1,35.0,30.04,East,101,3.0,15.0,92,0.00,,---,0.06,VWS V14.00,2013-04-11 15:00:00,
2013-04-11 11:08:00,36.9,34.8,30.05,ENE,63,5.0,15.0,92,0.00,,---,0.06,VWS V14.00,2013-04-11 15:08:00,
2013-04-11 11:16:00,37.0,34.9,30.04,East,83,14.0,16.0,92,0.00,,---,0.06,VWS V14.00,2013-04-11 15:16:00,
2013-04-11 11:24:00,37.4,35.6,30.02,East,100,5.0,16.0,93,0.00,,---,0.06,VWS V14.00,2013-04-11 15:24:00,
2013-04-11 11:30:00,37.7,35.9,30.02,ESE,119,4.0,16.0,93,0.00,,---,0.06,VWS V14.00,2013-04-11 15:30:00,
2013-04-11 11:40:00,38.5,36.7,30.03,ESE,111,3.0,13.0,93,0.00,,---,0.06,VWS V14.00,2013-04-11 15:40:00,
2013-04-11 11:48:00,38.8,37.0,30.03,SE,124,6.0,13.0,93,0.00,,---,0.06,VWS V14.00,2013-04-11 15:48:00,
2013-04-11 11:56:00,39.1,37.2,30.02,ESE,103,7.0,13.0,93,0.00,,---,0.06,VWS V14.00,2013-04-11 15:56:00,
2013-04-11 12:04:00,39.0,36.9,30.01,SE,126,4.0,9.0,92,0.00,,---,0.06,VWS V14.00,2013-04-11 16:04:00,
2013-04-11 12:12:00,39.2,37.1,30.01,ESE,113,8.0,14.0,92,0.00,,---,0.06,VWS V14.00,2013-04-11 16:12:00,
2013-04-11 12:20:00,39.4,37.3,30.02,SSE,151,5.0,14.0,92,0.00,,---,0.06,VWS V14.00,2013-04-11 16:20:00,
2013-04-11 12:28:00,39.6,37.2,30.03,East,90,5.0,14.0,91,0.00,,---,0.06,VWS V14.00,2013-04-11 16:28:00,
2013-04-11 12:36:00,39.2,36.5,30.04,NE,42,5.0,11.0,90,0.00,,---,0.06,VWS V14.00,2013-04-11 16:36:00,
2013-04-11 12:44:00,38.3,35.6,30.04,ENE,75,7.0,15.0,90,0.00,,---,0.06,VWS V14.00,2013-04-11 16:44:00,
2013-04-11 13:00:00,37.7,35.0,30.03,ESE,118,10.0,15.0,90,0.00,,---,0.06,VWS V14.00,2013-04-11 17:00:00,
2013-04-11 13:08:00,37.5,34.6,30.03,SE,127,11.0,17.0,89,0.00,,---,0.06,VWS V14.00,2013-04-11 17:08:00,
2013-04-11 13:16:00,37.4,34.7,30.04,East,88,8.0,17.0,90,0.00,,---,0.06,VWS V14.00,2013-04-11 17:16:00,
2013-04-11 13:24:00,37.2,34.5,30.06,NNE,30,3.0,17.0,90,0.00,,---,0.06,VWS V14.00,2013-04-11 17:24:00,
2013-04-11 13:30:00,37.0,34.3,30.06,East,81,2.0,17.0,90,0.00,,---,0.06,VWS V14.00,2013-04-11 17:30:00,
2013-04-11 13:40:00,36.8,33.9,30.04,ESE,104,8.0,11.0,89,0.00,,---,0.06,VWS V14.00,2013-04-11 17:40:00,
2013-04-11 13:48:00,36.5,33.6,30.03,SE,127,7.0,16.0,89,0.00,,---,0.06,VWS V14.00,2013-04-11 17:48:00,
2013-04-11 13:56:00,36.3,33.4,30.02,ESE,123,11.0,16.0,89,0.00,,---,0.06,VWS V14.00,2013-04-11 17:56:00,
2013-04-11 14:04:00,36.4,33.5,30.00,East,91,8.0,16.0,89,0.00,,---,0.06,VWS V14.00,2013-04-11 18:04:00,
2013-04-11 14:12:00,36.7,33.8,30.00,ESE,102,9.0,17.0,89,0.00,,---,0.06,VWS V14.00,2013-04-11 18:12:00,
2013-04-11 14:20:00,36.9,33.7,30.00,ESE,121,12.0,19.0,88,0.00,,---,0.06,VWS V14.00,2013-04-11 18:20:00,
2013-04-11 14:28:00,37.1,34.2,30.01,East,82,5.0,19.0,89,0.00,,---,0.06,VWS V14.00,2013-04-11 18:28:00,
2013-04-11 14:36:00,37.1,33.9,30.02,ESE,117,7.0,11.0,88,0.00,,---,0.06,VWS V14.00,2013-04-11 18:36:00,
2013-04-11 14:44:00,37.1,33.9,30.03,ESE,106,1.0,11.0,88,0.00,,---,0.06,VWS V14.00,2013-04-11 18:44:00,
2013-04-11 14:52:00,37.3,34.1,30.03,SE,134,3.0,11.0,88,0.00,,---,0.06,VWS V14.00,2013-04-11 18:52:00,
2013-04-11 15:00:00,37.3,34.1,30.03,East,88,3.0,11.0,88,0.00,,---,0.06,VWS V14.00,2013-04-11 19:00:00,
2013-04-11 15:08:00,37.2,34.0,30.03,ENE,59,5.0,8.0,88,0.00,,---,0.06,VWS V14.00,2013-04-11 19:08:00,
2013-04-11 15:17:00,37.3,34.1,30.03,ESE,115,8.0,10.0,88,0.00,,---,0.06,VWS V14.00,2013-04-11 19:17:00,
2013-04-11 15:25:00,37.4,34.5,30.04,East,101,2.0,10.0,89,0.00,,---,0.06,VWS V14.00,2013-04-11 19:25:00,
2013-04-11 15:30:00,37.5,34.6,30.03,ENE,76,5.0,10.0,89,0.00,,---,0.06,VWS V14.00,2013-04-11 19:30:00,
2013-04-11 15:41:00,37.6,34.7,30.04,ESE,122,4.0,10.0,89,0.00,,---,0.06,VWS V14.00,2013-04-11 19:41:00,
2013-04-11 15:49:00,37.7,34.8,30.03,ESE,103,3.0,10.0,89,0.00,,---,0.06,VWS V14.00,2013-04-11 19:49:00,
2013-04-11 15:57:00,37.9,35.0,30.03,East,83,3.0,10.0,89,0.00,,---,0.06,VWS V14.00,2013-04-11 19:57:00,
2013-04-11 16:05:00,38.0,35.0,30.02,SE,133,6.0,8.0,89,0.00,,---,0.06,VWS V14.00,2013-04-11 20:05:00,
2013-04-11 16:13:00,38.1,35.2,30.02,ESE,108,5.0,9.0,89,0.00,,---,0.06,VWS V14.00,2013-04-11 20:13:00,
2013-04-11 16:21:00,38.1,35.2,30.01,ESE,117,2.0,9.0,89,0.00,,---,0.06,VWS V14.00,2013-04-11 20:21:00,
2013-04-11 16:29:00,38.3,35.3,30.00,SSE,151,4.0,10.0,89,0.00,,---,0.06,VWS V14.00,2013-04-11 20:29:00,
2013-04-11 16:37:00,38.3,35.3,29.99,ESE,109,5.0,11.0,89,0.00,,---,0.06,VWS V14.00,2013-04-11 20:37:00,
2013-04-11 16:45:00,38.6,35.6,29.99,ESE,107,7.0,13.0,89,0.00,,---,0.06,VWS V14.00,2013-04-11 20:45:00,
2013-04-11 16:53:00,38.7,35.5,29.98,ESE,105,4.0,14.0,88,0.00,,---,0.06,VWS V14.00,2013-04-11 20:53:00,
2013-04-11 17:00:00,38.8,35.6,29.98,ESE,121,8.0,16.0,88,0.00,,---,0.06,VWS V14.00,2013-04-11 21:00:00,
2013-04-11 17:09:00,38.8,35.6,29.97,East,86,3.0,13.0,88,0.00,,---,0.06,VWS V14.00,2013-04-11 21:09:00,
2013-04-11 17:17:00,38.9,35.7,29.98,East,99,9.0,13.0,88,0.00,,---,0.06,VWS V14.00,2013-04-11 21:17:00,
2013-04-11 17:25:00,39.1,35.8,29.99,East,100,3.0,13.0,88,0.00,,---,0.06,VWS V14.00,2013-04-11 21:25:00,
2013-04-11 17:33:00,39.2,36.0,29.99,East,98,5.0,10.0,88,0.00,,---,0.06,VWS V14.00,2013-04-11 21:33:00,
2013-04-11 17:41:00,39.2,36.0,29.99,East,96,3.0,10.0,88,0.00,,---,0.06,VWS V14.00,2013-04-11 21:41:00,
2013-04-11 17:49:00,39.2,35.7,29.99,SE,126,6.0,10.0,87,0.00,,---,0.06,VWS V14.00,2013-04-11 21:49:00,
2013-04-11 17:57:00,39.2,35.7,29.99,ESE,107,4.0,10.0,87,0.00,,---,0.06,VWS V14.00,2013-04-11 21:57:00,
2013-04-11 18:05:00,39.2,35.7,29.99,ESE,107,4.0,8.0,87,0.00,,---,0.06,VWS V14.00,2013-04-11 22:05:00,
2013-04-11 18:13:00,39.5,36.0,29.99,East,94,3.0,10.0,87,0.00,,---,0.06,VWS V14.00,2013-04-11 22:13:00,
2013-04-11 18:21:00,39.5,36.0,29.98,ESE,123,5.0,10.0,87,0.00,,---,0.06,VWS V14.00,2013-04-11 22:21:00,
2013-04-11 18:29:00,39.7,36.2,29.98,ESE,123,4.0,10.0,87,0.00,,---,0.06,VWS V14.00,2013-04-11 22:29:00,
2013-04-11 18:37:00,39.8,36.2,29.98,SE,136,2.0,9.0,87,0.00,,---,0.06,VWS V14.00,2013-04-11 22:37:00,
2013-04-11 18:45:00,40.0,36.5,29.99,ESE,110,4.0,9.0,87,0.00,,---,0.06,VWS V14.00,2013-04-11 22:45:00,
2013-04-11 18:53:00,40.0,36.5,29.98,ESE,122,3.0,11.0,87,0.00,,---,0.06,VWS V14.00,2013-04-11 22:53:00,
2013-04-11 19:00:00,39.8,36.0,29.97,ESE,104,8.0,11.0,86,0.00,,---,0.06,VWS V14.00,2013-04-11 23:00:00,
2013-04-11 19:09:00,39.8,36.0,29.97,ENE,76,9.0,10.0,86,0.00,,---,0.06,VWS V14.00,2013-04-11 23:09:00,
2013-04-11 19:17:00,39.8,36.2,29.97,SE,127,3.0,10.0,87,0.00,,---,0.06,VWS V14.00,2013-04-11 23:17:00,
2013-04-11 19:25:00,39.8,36.2,29.96,SE,124,5.0,10.0,87,0.00,,---,0.06,VWS V14.00,2013-04-11 23:25:00,
2013-04-11 19:33:00,39.9,36.1,29.96,ESE,112,2.0,10.0,86,0.00,,---,0.06,VWS V14.00,2013-04-11 23:33:00,
2013-04-11 19:41:00,39.9,36.1,29.96,ESE,123,3.0,10.0,86,0.00,,---,0.06,VWS V14.00,2013-04-11 23:41:00,
2013-04-11 19:49:00,39.9,36.1,29.96,SE,146,2.0,10.0,86,0.00,,---,0.06,VWS V14.00,2013-04-11 23:49:00,
2013-04-11 19:57:00,39.8,36.0,29.96,ESE,112,5.0,10.0,86,0.00,,---,0.06,VWS V14.00,2013-04-11 23:57:00,
2013-04-11 20:05:00,39.8,35.7,29.96,East,98,2.0,9.0,85,0.00,,---,0.06,VWS V14.00,2013-04-12 00:05:00,
2013-04-11 20:13:00,39.9,36.1,29.96,SE,128,6.0,9.0,86,0.00,,---,0.06,VWS V14.00,2013-04-12 00:13:00,
2013-04-11 20:21:00,39.9,36.1,29.95,ESE,103,2.0,9.0,86,0.00,,---,0.06,VWS V14.00,2013-04-12 00:21:00,
2013-04-11 20:29:00,39.9,36.1,29.96,ESE,113,7.0,9.0,86,0.00,,---,0.06,VWS V14.00,2013-04-12 00:29:00,
2013-04-11 20:37:00,39.9,35.8,29.96,East,79,3.0,8.0,85,0.00,,---,0.06,VWS V14.00,2013-04-12 00:37:00,
2013-04-11 20:46:00,39.8,35.7,29.95,ESE,111,3.0,8.0,85,0.00,,---,0.06,VWS V14.00,2013-04-12 00:46:00,
2013-04-11 20:54:00,39.7,35.9,29.95,ESE,111,5.0,8.0,86,0.00,,---,0.06,VWS V14.00,2013-04-12 00:54:00,
2013-04-11 21:00:00,39.7,35.9,29.95,SE,137,7.0,10.0,86,0.00,,---,0.06,VWS V14.00,2013-04-12 01:00:00,
2013-04-11 21:10:00,39.8,36.0,29.95,ESE,121,7.0,12.0,86,0.00,,---,0.06,VWS V14.00,2013-04-12 01:10:00,
2013-04-11 21:18:00,39.8,35.7,29.95,ESE,114,1.0,12.0,85,0.00,,---,0.06,VWS V14.00,2013-04-12 01:18:00,
2013-04-11 21:26:00,39.8,35.7,29.95,ESE,109,7.0,12.0,85,0.00,,---,0.06,VWS V14.00,2013-04-12 01:26:00,
2013-04-11 21:34:00,39.9,35.8,29.95,SE,130,4.0,8.0,85,0.00,,---,0.06,VWS V14.00,2013-04-12 01:34:00,
2013-04-11 21:42:00,40.0,35.9,29.94,SE,138,6.0,11.0,85,0.00,,---,0.06,VWS V14.00,2013-04-12 01:42:00,
2013-04-11 21:50:00,40.2,36.3,29.94,East,79,2.0,11.0,86,0.00,,---,0.06,VWS V14.00,2013-04-12 01:50:00,
2013-04-11 21:58:00,40.2,36.3,29.93,ESE,112,3.0,11.0,86,0.00,,---,0.06,VWS V14.00,2013-04-12 01:58:00,
2013-04-11 22:06:00,40.2,36.3,29.93,ESE,119,7.0,8.0,86,0.00,,---,0.06,VWS V14.00,2013-04-12 02:06:00,
2013-04-11 22:14:00,40.2,36.3,29.94,ESE,112,4.0,9.0,86,0.00,,---,0.06,VWS V14.00,2013-04-12 02:14:00,
2013-04-11 22:22:00,40.2,36.3,29.93,East,96,2.0,9.0,86,0.00,,---,0.06,VWS V14.00,2013-04-12 02:22:00,
2013-04-11 22:30:00,40.2,36.7,29.93,ESE,112,3.0,9.0,87,0.00,,---,0.06,VWS V14.00,2013-04-12 02:30:00,
2013-04-11 22:38:00,40.4,36.8,29.92,SE,138,7.0,9.0,87,0.00,,---,0.06,VWS V14.00,2013-04-12 02:38:00,
2013-04-11 22:54:00,41.1,37.8,29.90,ESE,111,4.0,10.0,88,0.00,,---,0.06,VWS V14.00,2013-04-12 02:54:00,
2013-04-11 23:00:00,41.3,38.0,29.90,SE,139,8.0,10.0,88,0.00,,---,0.06,VWS V14.00,2013-04-12 03:00:00,
2013-04-11 23:10:00,41.5,38.5,29.89,SSE,153,8.0,12.0,89,0.00,,---,0.06,VWS V14.00,2013-04-12 03:10:00,
2013-04-11 23:18:00,41.6,38.6,29.89,ESE,117,5.0,13.0,89,0.00,,---,0.06,VWS V14.00,2013-04-12 03:18:00,
2013-04-11 23:26:00,41.6,38.6,29.88,SE,146,9.0,13.0,89,0.00,,---,0.06,VWS V14.00,2013-04-12 03:26:00,
2013-04-11 23:34:00,41.6,38.9,29.88,SE,144,7.0,8.0,90,0.00,,---,0.06,VWS V14.00,2013-04-12 03:34:00,
2013-04-11 23:42:00,41.7,39.0,29.88,SE,129,5.0,8.0,90,0.00,,---,0.06,VWS V14.00,2013-04-12 03:42:00,
2013-04-11 23:50:00,41.7,39.0,29.88,SE,126,2.0,10.0,90,0.00,,---,0.06,VWS V14.00,2013-04-12 03:50:00,
2013-04-11 23:58:00,41.7,39.0,29.86,SE,134,7.0,10.0,90,0.00,,---,0.06,VWS V14.00,2013-04-12 03:58:00,